createdAt,value
2022-10-03T00:03:19.945Z,19.08
2022-10-03T00:06:37.078Z,19.07
2022-10-03T00:09:53.196Z,19.07
2022-10-03T00:13:13.871Z,19.07
2022-10-03T00:16:40.826Z,19.08
2022-10-03T00:19:43.014Z,19.06
2022-10-03T00:22:57.151Z,19.05
2022-10-03T00:26:35.195Z,19.03
2022-10-03T00:29:44.688Z,19.05
2022-10-03T00:32:52.258Z,19.03
2022-10-03T00:36:24.111Z,19.02
2022-10-03T00:39:53.159Z,19.02
2022-10-03T00:42:59.428Z,19.01
2022-10-03T00:46:19.939Z,19.00
2022-10-03T00:50:16.212Z,19.00
2022-10-03T00:53:21.215Z,19.00
2022-10-03T00:56:32.300Z,18.98
2022-10-03T01:00:01.625Z,18.99
2022-10-03T01:03:37.038Z,18.98
2022-10-03T01:07:16.497Z,18.99
2022-10-03T01:10:51.938Z,18.97
2022-10-03T01:14:22.855Z,18.97
2022-10-03T01:17:40.619Z,18.96
2022-10-03T01:21:28.222Z,18.95
2022-10-03T01:24:48.870Z,18.94
2022-10-03T01:28:18.306Z,18.93
2022-10-03T01:31:42.719Z,18.93
2022-10-03T01:35:11.291Z,18.93
2022-10-03T01:38:21.828Z,18.91
2022-10-03T01:41:59.047Z,18.91
2022-10-03T01:45:17.751Z,18.89
2022-10-03T01:48:52.697Z,18.91
2022-10-03T01:52:20.768Z,18.88
2022-10-03T01:55:41.476Z,18.88
2022-10-03T01:59:26.313Z,18.88
2022-10-03T02:02:35.125Z,18.88
2022-10-03T02:06:15.198Z,18.86
2022-10-03T02:09:52.337Z,18.86
2022-10-03T02:13:28.881Z,18.85
2022-10-03T02:17:01.525Z,18.85
2022-10-03T02:20:32.828Z,18.86
2022-10-03T02:23:35.016Z,18.84
2022-10-03T02:27:07.064Z,18.83
2022-10-03T02:30:24.196Z,18.83
2022-10-03T02:34:15.979Z,18.82
2022-10-03T02:37:56.996Z,18.82
2022-10-03T02:41:14.022Z,18.82
2022-10-03T02:44:55.813Z,18.81
2022-10-03T02:48:37.769Z,18.81
2022-10-03T02:52:33.916Z,18.81
2022-10-03T02:56:00.500Z,18.79
2022-10-03T02:59:41.634Z,18.79
2022-10-03T03:03:10.620Z,18.78
2022-10-03T03:06:41.167Z,18.79
2022-10-03T03:10:02.548Z,18.77
2022-10-03T03:13:42.111Z,18.77
2022-10-03T03:17:12.022Z,18.76
2022-10-03T03:20:43.888Z,18.77
2022-10-03T03:24:02.456Z,18.74
2022-10-03T03:27:18.649Z,18.74
2022-10-03T03:30:32.067Z,18.74
2022-10-03T03:33:54.103Z,18.73
2022-10-03T03:37:24.534Z,18.71
2022-10-03T03:40:45.964Z,18.72
2022-10-03T03:44:24.719Z,18.71
2022-10-03T03:47:51.740Z,18.71
2022-10-03T03:51:06.449Z,18.70
2022-10-03T03:54:38.735Z,18.69
2022-10-03T03:57:47.479Z,18.70
2022-10-03T04:01:20.161Z,18.68
2022-10-03T04:04:56.451Z,18.69
2022-10-03T04:08:13.305Z,18.68
2022-10-03T04:11:25.582Z,18.69
2022-10-03T04:14:58.034Z,18.67
2022-10-03T04:18:59.450Z,18.67
2022-10-03T04:22:22.717Z,18.67
2022-10-03T04:25:42.805Z,18.65
2022-10-03T04:28:57.265Z,18.66
2022-10-03T04:32:23.349Z,18.65
2022-10-03T04:35:30.959Z,18.63
2022-10-03T04:38:54.521Z,18.64
2022-10-03T04:42:27.011Z,18.64
2022-10-03T04:46:02.279Z,18.63
2022-10-03T04:49:33.533Z,18.62
2022-10-03T04:52:42.898Z,18.62
2022-10-03T04:55:49.878Z,18.61
2022-10-03T04:59:15.618Z,18.59
2022-10-03T05:02:30.650Z,18.59
2022-10-03T05:05:50.793Z,18.59
2022-10-03T05:09:32.592Z,18.59
2022-10-03T05:12:55.079Z,18.57
2022-10-03T05:16:06.209Z,18.57
2022-10-03T05:19:33.498Z,18.56
2022-10-03T05:22:49.694Z,18.56
2022-10-03T05:26:11.888Z,18.55
2022-10-03T05:29:53.215Z,18.56
2022-10-03T05:33:07.727Z,18.55
2022-10-03T05:36:37.135Z,18.55
2022-10-03T05:40:13.225Z,18.54
2022-10-03T05:43:28.635Z,18.54
2022-10-03T05:46:39.917Z,18.53
2022-10-03T05:50:06.776Z,18.52
2022-10-03T05:53:42.249Z,18.52
2022-10-03T05:57:18.319Z,18.52
2022-10-03T06:00:30.173Z,18.51
2022-10-03T06:04:06.433Z,18.50
2022-10-03T06:07:27.800Z,18.51
2022-10-03T06:11:02.469Z,18.50
2022-10-03T06:14:24.921Z,18.50
2022-10-03T06:17:48.460Z,18.50
2022-10-03T06:21:14.808Z,18.49
2022-10-03T06:24:45.899Z,18.49
2022-10-03T06:28:00.549Z,17.92
2022-10-03T06:31:32.047Z,17.69
2022-10-03T06:34:34.376Z,17.62
2022-10-03T06:38:13.955Z,17.56
2022-10-03T06:41:54.987Z,17.40
2022-10-03T06:45:33.974Z,17.44
2022-10-03T06:48:58.393Z,18.03
2022-10-03T06:52:21.461Z,18.24
2022-10-03T06:55:53.190Z,18.37
2022-10-03T06:59:17.941Z,18.43
2022-10-03T07:02:38.771Z,18.47
2022-10-03T07:06:12.404Z,18.54
2022-10-03T07:09:42.542Z,18.56
2022-10-03T07:13:02.799Z,18.62
2022-10-03T07:16:43.677Z,18.67
2022-10-03T07:20:01.964Z,18.66
2022-10-03T07:23:34.239Z,18.68
2022-10-03T07:26:53.789Z,18.70
2022-10-03T07:30:08.097Z,18.72
2022-10-03T07:33:42.623Z,18.76
2022-10-03T07:37:25.170Z,18.74
2022-10-03T07:40:47.829Z,18.77
2022-10-03T07:44:24.144Z,18.83
2022-10-03T07:47:57.672Z,18.91
2022-10-03T07:51:37.824Z,18.94
2022-10-03T07:55:09.182Z,19.07
2022-10-03T07:58:29.157Z,19.17
2022-10-03T08:01:54.580Z,19.23
2022-10-03T08:05:05.593Z,19.27
2022-10-03T08:08:10.072Z,19.26
2022-10-03T08:11:39.649Z,19.31
2022-10-03T08:15:05.084Z,19.32
2022-10-03T08:18:26.142Z,19.36
2022-10-03T08:21:50.084Z,19.31
2022-10-03T08:24:52.406Z,19.30
2022-10-03T08:28:42.473Z,19.36
2022-10-03T08:32:07.101Z,19.39
2022-10-03T08:35:56.639Z,19.36
2022-10-03T08:39:20.360Z,19.41
2022-10-03T08:43:03.321Z,19.44
2022-10-03T08:46:33.157Z,19.47
2022-10-03T08:50:05.712Z,19.52
2022-10-03T08:53:35.043Z,19.53
2022-10-03T08:57:02.661Z,19.58
2022-10-03T09:00:16.924Z,19.60
2022-10-03T09:03:55.968Z,19.59
2022-10-03T09:07:19.567Z,19.66
2022-10-03T09:10:30.951Z,19.65
2022-10-03T09:14:03.308Z,19.66
2022-10-03T09:17:09.769Z,19.63
2022-10-03T09:20:47.223Z,19.66
2022-10-03T09:24:15.696Z,19.66
2022-10-03T09:27:32.295Z,19.68
2022-10-03T09:30:49.411Z,19.66
2022-10-03T09:34:03.565Z,19.66
2022-10-03T09:37:21.908Z,19.69
2022-10-03T09:40:32.757Z,19.70
2022-10-03T09:43:43.812Z,19.72
2022-10-03T09:47:23.274Z,19.82
2022-10-03T09:50:55.239Z,19.89
2022-10-03T09:54:18.739Z,19.96
2022-10-03T09:57:40.192Z,19.98
2022-10-03T10:01:09.711Z,19.99
2022-10-03T10:04:57.885Z,20.01
2022-10-03T10:08:18.740Z,20.06
2022-10-03T10:11:55.013Z,20.13
2022-10-03T10:15:22.688Z,20.15
2022-10-03T10:19:01.448Z,20.13
2022-10-03T10:22:03.477Z,20.17
2022-10-03T10:25:32.253Z,20.20
2022-10-03T10:28:52.432Z,20.22
2022-10-03T10:32:22.243Z,20.24
2022-10-03T10:35:43.808Z,20.24
2022-10-03T10:39:00.921Z,20.22
2022-10-03T10:42:29.740Z,20.22
2022-10-03T10:46:04.588Z,20.25
2022-10-03T10:49:32.012Z,20.25
2022-10-03T10:52:47.716Z,20.22
2022-10-03T10:56:13.848Z,20.26
2022-10-03T10:59:59.341Z,20.26
2022-10-03T11:03:33.293Z,20.22
2022-10-03T11:07:11.524Z,20.24
2022-10-03T11:10:19.342Z,20.22
2022-10-03T11:13:49.408Z,20.25
2022-10-03T11:17:33.243Z,20.27
2022-10-03T11:21:10.698Z,20.25
2022-10-03T11:24:43.688Z,20.22
2022-10-03T11:28:07.576Z,20.16
2022-10-03T11:31:40.118Z,20.13
2022-10-03T11:35:01.530Z,20.16
2022-10-03T11:38:20.198Z,20.20
2022-10-03T11:41:48.831Z,20.24
2022-10-03T11:44:55.936Z,20.25
2022-10-03T11:48:15.158Z,20.21
2022-10-03T11:51:45.061Z,20.25
2022-10-03T11:54:50.685Z,20.29
2022-10-03T11:58:33.988Z,20.10
2022-10-03T12:02:01.457Z,19.69
2022-10-03T12:05:40.857Z,19.57
2022-10-03T12:09:14.262Z,19.71
2022-10-03T12:12:48.431Z,19.74
2022-10-03T12:15:58.099Z,19.91
2022-10-03T12:19:20.796Z,19.95
2022-10-03T12:22:41.979Z,19.86
2022-10-03T12:25:47.325Z,19.99
2022-10-03T12:28:54.512Z,19.99
2022-10-03T12:32:14.524Z,20.06
2022-10-03T12:35:40.908Z,19.96
2022-10-03T12:38:51.174Z,20.03
2022-10-03T12:42:09.779Z,19.80
2022-10-03T12:45:43.474Z,19.82
2022-10-03T12:48:55.648Z,19.85
2022-10-03T12:52:01.737Z,20.07
2022-10-03T12:55:09.806Z,20.13
2022-10-03T12:58:37.362Z,20.06
2022-10-03T13:02:08.438Z,19.96
2022-10-03T13:05:22.952Z,19.90
2022-10-03T13:08:34.317Z,20.02
2022-10-03T13:11:54.737Z,20.18
2022-10-03T13:15:34.902Z,20.28
2022-10-03T13:18:56.005Z,20.30
2022-10-03T13:22:07.032Z,20.20
2022-10-03T13:25:25.025Z,20.14
2022-10-03T13:28:41.292Z,20.24
2022-10-03T13:31:55.600Z,20.20
2022-10-03T13:35:41.228Z,20.29
2022-10-03T13:38:45.760Z,20.58
2022-10-03T13:42:15.910Z,20.65
2022-10-03T13:45:21.400Z,20.74
2022-10-03T13:48:29.791Z,20.80
2022-10-03T13:51:45.674Z,20.86
2022-10-03T13:55:11.383Z,20.90
2022-10-03T13:58:43.984Z,20.95
2022-10-03T14:02:18.648Z,20.95
2022-10-03T14:05:40.848Z,21.02
2022-10-03T14:09:20.450Z,21.08
2022-10-03T14:13:00.988Z,21.01
2022-10-03T14:16:24.039Z,20.89
2022-10-03T14:19:33.615Z,20.81
2022-10-03T14:22:51.161Z,20.94
2022-10-03T14:26:00.164Z,21.00
2022-10-03T14:29:33.860Z,21.07
2022-10-03T14:33:07.027Z,21.15
2022-10-03T14:36:31.588Z,21.18
2022-10-03T14:39:46.013Z,21.17
2022-10-03T14:43:03.101Z,21.20
2022-10-03T14:46:06.590Z,21.19
2022-10-03T14:49:52.367Z,21.20
2022-10-03T14:52:50.237Z,21.18
2022-10-03T14:55:52.338Z,21.16
2022-10-03T14:58:56.707Z,21.11
2022-10-03T15:02:01.031Z,21.11
2022-10-03T15:05:17.490Z,21.09
2022-10-03T15:08:20.719Z,21.08
2022-10-03T15:11:27.265Z,21.03
2022-10-03T15:14:32.767Z,20.96
2022-10-03T15:17:43.437Z,20.90
2022-10-03T15:20:46.938Z,20.87
2022-10-03T15:24:04.909Z,20.83
2022-10-03T15:27:21.110Z,20.79
2022-10-03T15:30:31.422Z,20.74
2022-10-03T15:33:37.163Z,20.72
2022-10-03T15:36:42.143Z,20.69
2022-10-03T15:39:45.746Z,20.65
2022-10-03T15:42:51.454Z,20.62
2022-10-03T15:45:56.484Z,20.60
2022-10-03T15:49:02.766Z,20.58
2022-10-03T15:52:15.727Z,20.56
2022-10-03T15:55:26.962Z,20.53
2022-10-03T15:58:36.623Z,20.51
2022-10-03T16:01:41.501Z,20.47
2022-10-03T16:04:46.868Z,20.46
2022-10-03T16:07:57.641Z,20.43
2022-10-03T16:11:09.221Z,20.43
2022-10-03T16:14:30.011Z,20.41
2022-10-03T16:17:50.801Z,20.40
2022-10-03T16:21:01.880Z,20.37
2022-10-03T16:24:05.957Z,20.36
2022-10-03T16:27:24.564Z,20.36
2022-10-03T16:30:58.077Z,20.35
2022-10-03T16:34:12.674Z,20.34
2022-10-03T16:37:47.370Z,20.32
2022-10-03T16:40:57.783Z,20.36
2022-10-03T16:44:06.626Z,20.39
2022-10-03T16:47:10.867Z,20.40
2022-10-03T16:50:25.895Z,20.39
2022-10-03T16:53:28.987Z,20.36
2022-10-03T16:56:36.384Z,20.35
2022-10-03T16:59:42.196Z,20.34
2022-10-03T17:02:45.095Z,20.31
2022-10-03T17:05:49.833Z,20.27
2022-10-03T17:08:54.623Z,20.24
2022-10-03T17:11:59.297Z,20.21
2022-10-03T17:15:25.814Z,20.19
2022-10-03T17:18:35.346Z,20.18
2022-10-03T17:21:40.143Z,20.16
2022-10-03T17:24:53.396Z,20.14
2022-10-03T17:27:56.755Z,20.13
2022-10-03T17:31:03.973Z,20.11
2022-10-03T17:34:34.473Z,20.09
2022-10-03T17:37:36.418Z,20.06
2022-10-03T17:41:13.428Z,20.05
2022-10-03T17:44:19.526Z,20.04
2022-10-03T17:47:38.839Z,20.03
2022-10-03T17:50:54.933Z,20.02
2022-10-03T17:53:59.316Z,20.01
2022-10-03T17:57:11.132Z,20.01
2022-10-03T18:00:26.318Z,19.99
2022-10-03T18:03:42.159Z,19.97
2022-10-03T18:06:49.059Z,19.97
2022-10-03T18:09:54.501Z,19.97
2022-10-03T18:13:00.031Z,19.96
2022-10-03T18:16:11.149Z,19.94
2022-10-03T18:19:44.173Z,19.95
2022-10-03T18:22:49.190Z,19.90
2022-10-03T18:26:20.943Z,19.89
2022-10-03T18:29:29.747Z,19.89
2022-10-03T18:32:37.569Z,19.87
2022-10-03T18:35:42.401Z,19.86
2022-10-03T18:38:47.009Z,19.85
2022-10-03T18:41:55.444Z,19.84
2022-10-03T18:45:01.542Z,19.82
2022-10-03T18:48:12.558Z,19.81
2022-10-03T18:51:27.529Z,19.81
2022-10-03T18:54:41.746Z,19.79
2022-10-03T18:58:13.276Z,19.77
2022-10-03T19:01:28.244Z,19.76
2022-10-03T19:05:05.952Z,19.75
2022-10-03T19:08:11.141Z,19.75
2022-10-03T19:11:23.325Z,19.74
2022-10-03T19:14:52.092Z,19.72
2022-10-03T19:18:22.201Z,19.72
2022-10-03T19:21:24.979Z,19.71
2022-10-03T19:24:46.493Z,19.71
2022-10-03T19:28:01.622Z,19.70
2022-10-03T19:31:17.115Z,19.68
2022-10-03T19:34:37.386Z,19.68
2022-10-03T19:37:47.174Z,19.68
2022-10-03T19:41:06.718Z,19.66
2022-10-03T19:44:17.537Z,19.66
2022-10-03T19:47:49.056Z,19.65
2022-10-03T19:50:54.562Z,19.63
2022-10-03T19:53:57.696Z,19.62
2022-10-03T19:57:04.132Z,19.63
2022-10-03T20:00:14.941Z,19.62
2022-10-03T20:03:29.314Z,19.60
2022-10-03T20:06:39.576Z,19.58
2022-10-03T20:10:02.763Z,19.58
2022-10-03T20:13:04.991Z,19.57
2022-10-03T20:16:13.503Z,19.57
2022-10-03T20:19:22.207Z,19.56
2022-10-03T20:22:27.463Z,19.55
2022-10-03T20:25:43.152Z,19.54
2022-10-03T20:28:45.150Z,19.54
2022-10-03T20:31:47.798Z,19.52
2022-10-03T20:34:58.429Z,19.52
2022-10-03T20:38:30.636Z,19.51
2022-10-03T20:41:41.895Z,19.48
2022-10-03T20:45:01.739Z,19.50
2022-10-03T20:48:08.549Z,19.48
2022-10-03T20:51:23.857Z,19.45
2022-10-03T20:54:30.841Z,19.45
2022-10-03T20:57:37.842Z,19.45
2022-10-03T21:00:52.137Z,19.45
2022-10-03T21:04:06.491Z,19.44
2022-10-03T21:07:11.618Z,19.43
2022-10-03T21:10:36.162Z,19.43
2022-10-03T21:13:52.015Z,19.42
2022-10-03T21:16:55.074Z,19.40
2022-10-03T21:20:04.301Z,19.40
2022-10-03T21:23:20.156Z,19.38
2022-10-03T21:26:29.930Z,19.39
2022-10-03T21:29:35.071Z,19.37
2022-10-03T21:33:18.743Z,19.37
2022-10-03T21:37:02.286Z,19.36
2022-10-03T21:40:22.659Z,19.33
2022-10-03T21:43:48.702Z,19.33
2022-10-03T21:46:55.780Z,19.31
2022-10-03T21:50:00.843Z,19.31
2022-10-03T21:53:21.841Z,19.30
2022-10-03T21:56:45.707Z,19.30
2022-10-03T22:00:09.533Z,19.28
2022-10-03T22:03:16.272Z,19.28
2022-10-03T22:06:25.463Z,19.26
2022-10-03T22:09:28.382Z,19.26
2022-10-03T22:12:40.381Z,19.24
2022-10-03T22:16:28.714Z,19.24
2022-10-03T22:19:40.671Z,19.24
2022-10-03T22:23:00.155Z,19.22
2022-10-03T22:26:20.620Z,19.21
2022-10-03T22:29:28.683Z,19.18
2022-10-03T22:32:40.001Z,19.20
2022-10-03T22:35:50.112Z,19.18
2022-10-03T22:38:53.297Z,19.18
2022-10-03T22:42:00.111Z,19.17
2022-10-03T22:45:04.120Z,19.16
2022-10-03T22:48:15.185Z,19.16
2022-10-03T22:51:19.106Z,19.15
2022-10-03T22:54:22.436Z,19.14
2022-10-03T22:57:25.563Z,19.13
2022-10-03T23:00:33.157Z,19.13
2022-10-03T23:03:39.055Z,19.11
2022-10-03T23:07:10.411Z,19.11
2022-10-03T23:10:47.541Z,19.10
2022-10-03T23:13:51.711Z,19.09
2022-10-03T23:16:58.836Z,19.09
2022-10-03T23:20:19.317Z,19.08
2022-10-03T23:23:38.271Z,19.07
2022-10-03T23:26:55.127Z,19.07
2022-10-03T23:30:12.210Z,19.05
2022-10-03T23:33:38.735Z,19.02
2022-10-03T23:37:01.273Z,19.03
2022-10-03T23:40:09.148Z,19.03
2022-10-03T23:43:40.065Z,19.03
2022-10-03T23:46:42.389Z,19.01
2022-10-03T23:49:46.931Z,18.99
2022-10-03T23:52:57.472Z,18.99
2022-10-03T23:56:04.554Z,18.99
2022-10-03T23:59:14.375Z,18.98
